Terminal Aerodrome Forecast
Issued by NWS

Current Version | Previous Version | Text Only | Print | Product List | Glossary Off
Versions: 1 2 3 4 5 6 7 8 9 10 11 12 13 14 15 16 17 18 19

274
FTUS41 KRLX 270205 AAA
TAFCKB
TAF AMD
KCKB 270205Z 2702/2724 00000KT P6SM FEW250
     FM270400 00000KT 6SM BR FEW250
     FM270600 00000KT 5SM BR FEW250
     FM271100 00000KT 6SM BR SCT050
     FM271200 VRB03KT P6SM BKN040
     FM272300 VRB03KT P6SM SHRA VCTS OVC040CB=

USA.gov is the U.S. government's official web portal to all federal, state and local government web resources and services.